sensor_id;sensor_type;location;lat;lon;timestamp;temperature;humidity
68801;SHT31;55784;50.734;7.086;2022-07-23T00:02:17;19.77;71.10
68801;SHT31;55784;50.734;7.086;2022-07-23T00:04:42;19.77;71.05
68801;SHT31;55784;50.734;7.086;2022-07-23T00:07:08;19.75;70.87
68801;SHT31;55784;50.734;7.086;2022-07-23T00:09:33;19.74;71.04
68801;SHT31;55784;50.734;7.086;2022-07-23T00:11:59;19.74;70.97
68801;SHT31;55784;50.734;7.086;2022-07-23T00:14:24;19.77;70.97
68801;SHT31;55784;50.734;7.086;2022-07-23T00:16:49;19.71;71.22
68801;SHT31;55784;50.734;7.086;2022-07-23T00:19:15;19.74;71.24
68801;SHT31;55784;50.734;7.086;2022-07-23T00:21:40;19.77;71.11
68801;SHT31;55784;50.734;7.086;2022-07-23T00:24:06;19.78;71.07
68801;SHT31;55784;50.734;7.086;2022-07-23T00:26:31;19.75;71.29
68801;SHT31;55784;50.734;7.086;2022-07-23T00:28:57;19.79;70.97
68801;SHT31;55784;50.734;7.086;2022-07-23T00:31:22;19.74;71.18
68801;SHT31;55784;50.734;7.086;2022-07-23T00:33:47;19.72;71.67
68801;SHT31;55784;50.734;7.086;2022-07-23T00:36:13;19.72;71.46
68801;SHT31;55784;50.734;7.086;2022-07-23T00:38:38;19.67;71.72
68801;SHT31;55784;50.734;7.086;2022-07-23T00:41:03;19.64;71.89
68801;SHT31;55784;50.734;7.086;2022-07-23T00:43:29;19.58;72.16
68801;SHT31;55784;50.734;7.086;2022-07-23T00:45:54;19.60;71.86
68801;SHT31;55784;50.734;7.086;2022-07-23T00:48:19;19.51;71.88
68801;SHT31;55784;50.734;7.086;2022-07-23T00:50:45;19.46;72.20
68801;SHT31;55784;50.734;7.086;2022-07-23T00:53:11;19.44;72.37
68801;SHT31;55784;50.734;7.086;2022-07-23T00:55:37;19.41;72.50
68801;SHT31;55784;50.734;7.086;2022-07-23T00:58:04;19.35;72.84
68801;SHT31;55784;50.734;7.086;2022-07-23T01:00:29;19.28;73.08
68801;SHT31;55784;50.734;7.086;2022-07-23T01:02:55;19.30;73.35
68801;SHT31;55784;50.734;7.086;2022-07-23T01:05:20;19.28;73.58
68801;SHT31;55784;50.734;7.086;2022-07-23T01:07:51;19.21;73.78
68801;SHT31;55784;50.734;7.086;2022-07-23T01:10:17;19.21;73.81
68801;SHT31;55784;50.734;7.086;2022-07-23T01:13:05;19.24;73.98
68801;SHT31;55784;50.734;7.086;2022-07-23T01:15:32;19.26;74.07
68801;SHT31;55784;50.734;7.086;2022-07-23T01:17:58;19.23;74.19
68801;SHT31;55784;50.734;7.086;2022-07-23T01:20:23;19.20;74.53
68801;SHT31;55784;50.734;7.086;2022-07-23T01:22:48;19.19;74.80
68801;SHT31;55784;50.734;7.086;2022-07-23T01:25:14;19.19;74.84
68801;SHT31;55784;50.734;7.086;2022-07-23T01:27:39;19.14;75.03
68801;SHT31;55784;50.734;7.086;2022-07-23T01:30:06;19.07;75.24
68801;SHT31;55784;50.734;7.086;2022-07-23T01:32:31;19.06;75.13
68801;SHT31;55784;50.734;7.086;2022-07-23T01:34:57;19.06;75.23
68801;SHT31;55784;50.734;7.086;2022-07-23T01:37:22;18.99;75.50
68801;SHT31;55784;50.734;7.086;2022-07-23T01:39:47;18.92;75.57
68801;SHT31;55784;50.734;7.086;2022-07-23T01:42:13;18.90;75.58
68801;SHT31;55784;50.734;7.086;2022-07-23T01:44:38;18.86;75.72
68801;SHT31;55784;50.734;7.086;2022-07-23T01:47:03;18.82;76.04
68801;SHT31;55784;50.734;7.086;2022-07-23T01:49:28;18.85;75.96
68801;SHT31;55784;50.734;7.086;2022-07-23T01:51:54;18.90;76.00
68801;SHT31;55784;50.734;7.086;2022-07-23T01:54:34;18.79;76.14
68801;SHT31;55784;50.734;7.086;2022-07-23T01:57:00;18.65;76.72
68801;SHT31;55784;50.734;7.086;2022-07-23T01:59:26;18.63;76.89
68801;SHT31;55784;50.734;7.086;2022-07-23T02:01:52;18.58;76.98
68801;SHT31;55784;50.734;7.086;2022-07-23T02:04:19;18.59;76.87
68801;SHT31;55784;50.734;7.086;2022-07-23T02:06:45;18.62;76.71
68801;SHT31;55784;50.734;7.086;2022-07-23T02:09:11;18.60;76.69
68801;SHT31;55784;50.734;7.086;2022-07-23T02:11:36;18.60;76.72
68801;SHT31;55784;50.734;7.086;2022-07-23T02:14:01;18.62;76.91
68801;SHT31;55784;50.734;7.086;2022-07-23T02:16:27;18.60;76.75
68801;SHT31;55784;50.734;7.086;2022-07-23T02:18:52;18.62;76.76
68801;SHT31;55784;50.734;7.086;2022-07-23T02:21:17;18.65;76.68
68801;SHT31;55784;50.734;7.086;2022-07-23T02:23:43;18.63;77.51
68801;SHT31;55784;50.734;7.086;2022-07-23T02:26:08;18.55;77.76
68801;SHT31;55784;50.734;7.086;2022-07-23T02:28:33;18.58;78.18
68801;SHT31;55784;50.734;7.086;2022-07-23T02:30:58;18.65;77.29
68801;SHT31;55784;50.734;7.086;2022-07-23T02:33:24;18.58;77.80
68801;SHT31;55784;50.734;7.086;2022-07-23T02:35:49;18.52;77.72
68801;SHT31;55784;50.734;7.086;2022-07-23T02:38:14;18.49;78.05
68801;SHT31;55784;50.734;7.086;2022-07-23T02:40:40;18.49;78.09
68801;SHT31;55784;50.734;7.086;2022-07-23T02:43:05;18.51;78.09
68801;SHT31;55784;50.734;7.086;2022-07-23T02:45:30;18.53;78.03
68801;SHT31;55784;50.734;7.086;2022-07-23T02:47:55;18.51;77.64
68801;SHT31;55784;50.734;7.086;2022-07-23T02:50:21;18.49;77.64
68801;SHT31;55784;50.734;7.086;2022-07-23T02:52:46;18.35;77.99
68801;SHT31;55784;50.734;7.086;2022-07-23T02:55:12;18.34;78.31
68801;SHT31;55784;50.734;7.086;2022-07-23T02:57:37;18.32;78.43
68801;SHT31;55784;50.734;7.086;2022-07-23T03:00:05;18.38;78.25
68801;SHT31;55784;50.734;7.086;2022-07-23T03:02:31;18.35;77.85
68801;SHT31;55784;50.734;7.086;2022-07-23T03:04:56;18.29;77.75
68801;SHT31;55784;50.734;7.086;2022-07-23T03:07:21;18.29;77.81
68801;SHT31;55784;50.734;7.086;2022-07-23T03:09:47;18.22;78.00
68801;SHT31;55784;50.734;7.086;2022-07-23T03:12:12;18.19;78.32
68801;SHT31;55784;50.734;7.086;2022-07-23T03:14:37;18.18;78.94
68801;SHT31;55784;50.734;7.086;2022-07-23T03:17:06;18.11;80.24
68801;SHT31;55784;50.734;7.086;2022-07-23T03:19:32;18.02;80.54
68801;SHT31;55784;50.734;7.086;2022-07-23T03:21:57;18.00;80.64
68801;SHT31;55784;50.734;7.086;2022-07-23T03:24:22;17.95;80.80
68801;SHT31;55784;50.734;7.086;2022-07-23T03:27:07;17.93;80.85
68801;SHT31;55784;50.734;7.086;2022-07-23T03:29:33;17.87;81.07
68801;SHT31;55784;50.734;7.086;2022-07-23T03:31:58;17.87;81.12
68801;SHT31;55784;50.734;7.086;2022-07-23T03:34:23;17.77;81.43
68801;SHT31;55784;50.734;7.086;2022-07-23T03:36:48;17.67;81.88
68801;SHT31;55784;50.734;7.086;2022-07-23T03:39:14;17.66;81.99
68801;SHT31;55784;50.734;7.086;2022-07-23T03:41:39;17.59;82.32
68801;SHT31;55784;50.734;7.086;2022-07-23T03:44:04;17.59;82.47
68801;SHT31;55784;50.734;7.086;2022-07-23T03:46:30;17.59;82.52
68801;SHT31;55784;50.734;7.086;2022-07-23T03:48:55;17.55;82.74
68801;SHT31;55784;50.734;7.086;2022-07-23T03:51:20;17.47;83.04
68801;SHT31;55784;50.734;7.086;2022-07-23T03:53:45;17.44;83.13
68801;SHT31;55784;50.734;7.086;2022-07-23T03:56:11;17.43;83.03
68801;SHT31;55784;50.734;7.086;2022-07-23T03:58:36;17.46;83.19
68801;SHT31;55784;50.734;7.086;2022-07-23T04:01:02;17.36;83.45
68801;SHT31;55784;50.734;7.086;2022-07-23T04:03:27;17.37;83.78
68801;SHT31;55784;50.734;7.086;2022-07-23T04:05:52;17.27;84.30
68801;SHT31;55784;50.734;7.086;2022-07-23T04:08:17;17.24;84.37
68801;SHT31;55784;50.734;7.086;2022-07-23T04:10:43;17.26;84.61
68801;SHT31;55784;50.734;7.086;2022-07-23T04:13:08;17.26;84.51
68801;SHT31;55784;50.734;7.086;2022-07-23T04:15:33;17.32;84.50
68801;SHT31;55784;50.734;7.086;2022-07-23T04:17:59;17.30;84.51
68801;SHT31;55784;50.734;7.086;2022-07-23T04:20:24;17.33;84.54
68801;SHT31;55784;50.734;7.086;2022-07-23T04:22:49;17.54;84.08
68801;SHT31;55784;50.734;7.086;2022-07-23T04:25:15;17.63;83.81
68801;SHT31;55784;50.734;7.086;2022-07-23T04:27:42;17.95;82.57
68801;SHT31;55784;50.734;7.086;2022-07-23T04:30:08;17.93;82.90
68801;SHT31;55784;50.734;7.086;2022-07-23T04:32:34;18.08;82.10
68801;SHT31;55784;50.734;7.086;2022-07-23T04:34:59;18.15;81.91
68801;SHT31;55784;50.734;7.086;2022-07-23T04:37:24;18.34;81.10
68801;SHT31;55784;50.734;7.086;2022-07-23T04:39:50;18.51;79.93
68801;SHT31;55784;50.734;7.086;2022-07-23T04:42:15;18.35;80.54
68801;SHT31;55784;50.734;7.086;2022-07-23T04:44:40;18.24;81.07
68801;SHT31;55784;50.734;7.086;2022-07-23T04:47:06;18.19;81.06
68801;SHT31;55784;50.734;7.086;2022-07-23T04:49:31;18.32;80.26
68801;SHT31;55784;50.734;7.086;2022-07-23T04:51:56;18.59;79.35
68801;SHT31;55784;50.734;7.086;2022-07-23T04:54:21;18.96;77.39
68801;SHT31;55784;50.734;7.086;2022-07-23T04:56:47;19.24;77.00
68801;SHT31;55784;50.734;7.086;2022-07-23T04:59:12;19.53;75.91
68801;SHT31;55784;50.734;7.086;2022-07-23T05:01:37;19.37;76.31
68801;SHT31;55784;50.734;7.086;2022-07-23T05:04:03;19.50;75.94
68801;SHT31;55784;50.734;7.086;2022-07-23T05:06:28;19.43;75.79
68801;SHT31;55784;50.734;7.086;2022-07-23T05:08:53;19.04;77.07
68801;SHT31;55784;50.734;7.086;2022-07-23T05:11:20;18.68;78.29
68801;SHT31;55784;50.734;7.086;2022-07-23T05:13:45;18.56;78.98
68801;SHT31;55784;50.734;7.086;2022-07-23T05:16:11;18.66;79.08
68801;SHT31;55784;50.734;7.086;2022-07-23T05:18:36;18.60;79.21
68801;SHT31;55784;50.734;7.086;2022-07-23T05:21:01;18.70;79.01
68801;SHT31;55784;50.734;7.086;2022-07-23T05:23:27;18.96;78.42
68801;SHT31;55784;50.734;7.086;2022-07-23T05:25:53;19.38;76.95
68801;SHT31;55784;50.734;7.086;2022-07-23T05:28:18;19.60;75.60
68801;SHT31;55784;50.734;7.086;2022-07-23T05:30:43;20.02;74.77
68801;SHT31;55784;50.734;7.086;2022-07-23T05:33:08;20.02;73.37
68801;SHT31;55784;50.734;7.086;2022-07-23T05:35:34;19.60;75.18
68801;SHT31;55784;50.734;7.086;2022-07-23T05:37:59;19.65;74.93
68801;SHT31;55784;50.734;7.086;2022-07-23T05:40:24;19.70;74.47
68801;SHT31;55784;50.734;7.086;2022-07-23T05:42:50;19.50;75.41
68801;SHT31;55784;50.734;7.086;2022-07-23T05:45:15;19.65;74.92
68801;SHT31;55784;50.734;7.086;2022-07-23T05:47:46;19.38;75.79
68801;SHT31;55784;50.734;7.086;2022-07-23T05:50:12;19.27;76.39
68801;SHT31;55784;50.734;7.086;2022-07-23T05:52:38;19.17;76.66
68801;SHT31;55784;50.734;7.086;2022-07-23T05:55:05;19.09;77.06
68801;SHT31;55784;50.734;7.086;2022-07-23T05:57:31;19.23;76.62
68801;SHT31;55784;50.734;7.086;2022-07-23T05:59:56;19.21;76.54
68801;SHT31;55784;50.734;7.086;2022-07-23T06:02:22;19.11;77.03
68801;SHT31;55784;50.734;7.086;2022-07-23T06:04:47;19.06;76.89
68801;SHT31;55784;50.734;7.086;2022-07-23T06:07:12;19.17;76.98
68801;SHT31;55784;50.734;7.086;2022-07-23T06:09:37;19.10;76.98
68801;SHT31;55784;50.734;7.086;2022-07-23T06:12:03;18.95;77.56
68801;SHT31;55784;50.734;7.086;2022-07-23T06:14:28;18.77;78.21
68801;SHT31;55784;50.734;7.086;2022-07-23T06:16:54;18.80;78.27
68801;SHT31;55784;50.734;7.086;2022-07-23T06:19:19;18.76;78.49
68801;SHT31;55784;50.734;7.086;2022-07-23T06:21:44;18.85;78.37
68801;SHT31;55784;50.734;7.086;2022-07-23T06:24:10;19.27;77.00
68801;SHT31;55784;50.734;7.086;2022-07-23T06:26:35;19.51;76.02
68801;SHT31;55784;50.734;7.086;2022-07-23T06:29:00;20.12;74.13
68801;SHT31;55784;50.734;7.086;2022-07-23T06:31:26;20.16;73.74
68801;SHT31;55784;50.734;7.086;2022-07-23T06:33:51;20.26;73.42
68801;SHT31;55784;50.734;7.086;2022-07-23T06:36:16;20.52;72.97
68801;SHT31;55784;50.734;7.086;2022-07-23T06:38:41;20.54;72.92
68801;SHT31;55784;50.734;7.086;2022-07-23T06:41:07;20.42;72.95
68801;SHT31;55784;50.734;7.086;2022-07-23T06:43:32;20.49;72.98
68801;SHT31;55784;50.734;7.086;2022-07-23T06:45:57;20.40;72.85
68801;SHT31;55784;50.734;7.086;2022-07-23T06:48:23;20.35;72.96
68801;SHT31;55784;50.734;7.086;2022-07-23T06:50:48;20.43;73.24
68801;SHT31;55784;50.734;7.086;2022-07-23T06:53:13;20.43;72.64
68801;SHT31;55784;50.734;7.086;2022-07-23T06:55:39;20.39;72.94
68801;SHT31;55784;50.734;7.086;2022-07-23T06:58:05;20.21;73.55
68801;SHT31;55784;50.734;7.086;2022-07-23T07:00:30;20.18;73.39
68801;SHT31;55784;50.734;7.086;2022-07-23T07:02:56;20.32;73.05
68801;SHT31;55784;50.734;7.086;2022-07-23T07:05:21;20.36;72.66
68801;SHT31;55784;50.734;7.086;2022-07-23T07:07:51;20.42;72.18
68801;SHT31;55784;50.734;7.086;2022-07-23T07:10:16;20.25;71.90
68801;SHT31;55784;50.734;7.086;2022-07-23T07:12:42;20.33;72.12
68801;SHT31;55784;50.734;7.086;2022-07-23T07:15:08;20.33;71.60
68801;SHT31;55784;50.734;7.086;2022-07-23T07:17:33;20.42;71.67
68801;SHT31;55784;50.734;7.086;2022-07-23T07:19:58;20.33;71.97
68801;SHT31;55784;50.734;7.086;2022-07-23T07:22:24;20.37;71.96
68801;SHT31;55784;50.734;7.086;2022-07-23T07:24:49;20.56;70.36
68801;SHT31;55784;50.734;7.086;2022-07-23T07:27:15;20.70;70.30
68801;SHT31;55784;50.734;7.086;2022-07-23T07:29:40;20.69;70.03
68801;SHT31;55784;50.734;7.086;2022-07-23T07:32:06;20.59;69.71
68801;SHT31;55784;50.734;7.086;2022-07-23T07:34:31;20.66;69.82
68801;SHT31;55784;50.734;7.086;2022-07-23T07:36:56;20.69;69.34
68801;SHT31;55784;50.734;7.086;2022-07-23T07:39:21;20.90;68.47
68801;SHT31;55784;50.734;7.086;2022-07-23T07:41:47;20.77;67.91
68801;SHT31;55784;50.734;7.086;2022-07-23T07:44:12;20.84;64.20
68801;SHT31;55784;50.734;7.086;2022-07-23T07:46:37;20.62;65.93
68801;SHT31;55784;50.734;7.086;2022-07-23T07:49:03;20.79;66.97
68801;SHT31;55784;50.734;7.086;2022-07-23T07:51:28;20.97;67.01
68801;SHT31;55784;50.734;7.086;2022-07-23T07:53:54;21.01;66.78
68801;SHT31;55784;50.734;7.086;2022-07-23T07:56:19;21.25;65.58
68801;SHT31;55784;50.734;7.086;2022-07-23T07:58:44;21.25;66.09
68801;SHT31;55784;50.734;7.086;2022-07-23T08:01:09;21.21;64.43
68801;SHT31;55784;50.734;7.086;2022-07-23T08:03:36;21.17;64.59
68801;SHT31;55784;50.734;7.086;2022-07-23T08:06:01;21.10;64.26
68801;SHT31;55784;50.734;7.086;2022-07-23T08:08:27;21.24;64.84
68801;SHT31;55784;50.734;7.086;2022-07-23T08:10:52;21.35;65.06
68801;SHT31;55784;50.734;7.086;2022-07-23T08:13:17;21.47;64.57
68801;SHT31;55784;50.734;7.086;2022-07-23T08:15:43;21.55;64.00
68801;SHT31;55784;50.734;7.086;2022-07-23T08:18:09;21.55;63.61
68801;SHT31;55784;50.734;7.086;2022-07-23T08:20:35;21.63;63.61
68801;SHT31;55784;50.734;7.086;2022-07-23T08:23:04;21.82;63.55
68801;SHT31;55784;50.734;7.086;2022-07-23T08:25:35;21.81;63.83
68801;SHT31;55784;50.734;7.086;2022-07-23T08:28:02;21.72;63.79
68801;SHT31;55784;50.734;7.086;2022-07-23T08:30:29;22.05;62.88
68801;SHT31;55784;50.734;7.086;2022-07-23T08:33:06;22.13;62.77
68801;SHT31;55784;50.734;7.086;2022-07-23T08:35:40;22.05;63.47
68801;SHT31;55784;50.734;7.086;2022-07-23T08:38:08;22.16;63.37
68801;SHT31;55784;50.734;7.086;2022-07-23T08:40:36;22.26;64.27
68801;SHT31;55784;50.734;7.086;2022-07-23T08:43:05;22.54;62.84
68801;SHT31;55784;50.734;7.086;2022-07-23T08:45:35;22.32;63.16
68801;SHT31;55784;50.734;7.086;2022-07-23T08:48:01;22.33;63.07
68801;SHT31;55784;50.734;7.086;2022-07-23T08:50:28;22.24;62.78
68801;SHT31;55784;50.734;7.086;2022-07-23T08:52:54;22.19;62.24
68801;SHT31;55784;50.734;7.086;2022-07-23T08:55:21;22.02;61.85
68801;SHT31;55784;50.734;7.086;2022-07-23T08:57:52;22.08;62.46
68801;SHT31;55784;50.734;7.086;2022-07-23T09:00:20;22.08;62.13
68801;SHT31;55784;50.734;7.086;2022-07-23T09:02:46;22.10;61.43
68801;SHT31;55784;50.734;7.086;2022-07-23T09:05:13;22.32;61.34
68801;SHT31;55784;50.734;7.086;2022-07-23T09:13:52;22.28;62.42
68801;SHT31;55784;50.734;7.086;2022-07-23T09:18:48;22.16;63.53
68801;SHT31;55784;50.734;7.086;2022-07-23T09:21:19;22.41;61.81
68801;SHT31;55784;50.734;7.086;2022-07-23T09:23:57;22.57;61.62
68801;SHT31;55784;50.734;7.086;2022-07-23T09:31:57;22.49;60.49
68801;SHT31;55784;50.734;7.086;2022-07-23T09:34:30;22.59;60.43
68801;SHT31;55784;50.734;7.086;2022-07-23T09:37:09;22.63;59.72
68801;SHT31;55784;50.734;7.086;2022-07-23T09:39:35;22.29;60.60
68801;SHT31;55784;50.734;7.086;2022-07-23T09:42:18;22.57;59.91
68801;SHT31;55784;50.734;7.086;2022-07-23T09:44:47;22.56;60.94
68801;SHT31;55784;50.734;7.086;2022-07-23T09:47:13;22.56;60.57
68801;SHT31;55784;50.734;7.086;2022-07-23T09:49:38;22.51;60.71
68801;SHT31;55784;50.734;7.086;2022-07-23T09:52:04;22.32;61.89
68801;SHT31;55784;50.734;7.086;2022-07-23T09:54:35;22.43;61.48
68801;SHT31;55784;50.734;7.086;2022-07-23T09:57:04;22.53;60.80
68801;SHT31;55784;50.734;7.086;2022-07-23T09:59:33;22.68;59.82
68801;SHT31;55784;50.734;7.086;2022-07-23T10:01:59;22.87;59.46
68801;SHT31;55784;50.734;7.086;2022-07-23T10:04:27;22.81;59.29
68801;SHT31;55784;50.734;7.086;2022-07-23T10:06:55;22.91;59.46
68801;SHT31;55784;50.734;7.086;2022-07-23T10:09:24;23.10;59.35
68801;SHT31;55784;50.734;7.086;2022-07-23T10:11:50;23.04;57.57
68801;SHT31;55784;50.734;7.086;2022-07-23T10:14:16;22.92;56.02
68801;SHT31;55784;50.734;7.086;2022-07-23T10:16:41;22.95;57.25
68801;SHT31;55784;50.734;7.086;2022-07-23T10:19:07;23.10;57.50
68801;SHT31;55784;50.734;7.086;2022-07-23T10:21:43;23.31;57.74
68801;SHT31;55784;50.734;7.086;2022-07-23T10:24:18;23.44;57.28
68801;SHT31;55784;50.734;7.086;2022-07-23T10:27:02;23.26;58.48
68801;SHT31;55784;50.734;7.086;2022-07-23T10:34:46;23.39;56.03
68801;SHT31;55784;50.734;7.086;2022-07-23T10:37:35;23.58;55.10
68801;SHT31;55784;50.734;7.086;2022-07-23T10:40:20;23.56;53.73
68801;SHT31;55784;50.734;7.086;2022-07-23T10:43:30;23.42;54.98
68801;SHT31;55784;50.734;7.086;2022-07-23T10:46:26;23.56;55.24
68801;SHT31;55784;50.734;7.086;2022-07-23T10:52:33;23.56;54.70
68801;SHT31;55784;50.734;7.086;2022-07-23T10:57:28;23.90;53.57
68801;SHT31;55784;50.734;7.086;2022-07-23T11:02:39;23.96;54.39
68801;SHT31;55784;50.734;7.086;2022-07-23T11:05:06;23.89;52.00
68801;SHT31;55784;50.734;7.086;2022-07-23T11:07:32;23.77;52.54
68801;SHT31;55784;50.734;7.086;2022-07-23T11:09:58;23.95;50.96
68801;SHT31;55784;50.734;7.086;2022-07-23T11:12:32;24.00;53.28
68801;SHT31;55784;50.734;7.086;2022-07-23T11:15:10;24.16;53.33
68801;SHT31;55784;50.734;7.086;2022-07-23T11:17:39;24.41;52.19
68801;SHT31;55784;50.734;7.086;2022-07-23T11:20:23;24.37;52.00
68801;SHT31;55784;50.734;7.086;2022-07-23T11:22:51;24.27;51.20
68801;SHT31;55784;50.734;7.086;2022-07-23T11:27:53;24.27;51.36
68801;SHT31;55784;50.734;7.086;2022-07-23T11:35:39;24.61;50.95
68801;SHT31;55784;50.734;7.086;2022-07-23T11:38:24;24.58;49.68
68801;SHT31;55784;50.734;7.086;2022-07-23T11:40:54;24.74;50.68
68801;SHT31;55784;50.734;7.086;2022-07-23T11:43:21;24.51;51.09
68801;SHT31;55784;50.734;7.086;2022-07-23T11:45:49;24.60;50.26
68801;SHT31;55784;50.734;7.086;2022-07-23T11:48:24;24.50;48.51
68801;SHT31;55784;50.734;7.086;2022-07-23T11:50:50;24.61;49.50
68801;SHT31;55784;50.734;7.086;2022-07-23T11:53:29;24.56;50.10
68801;SHT31;55784;50.734;7.086;2022-07-23T11:56:10;24.72;49.52
68801;SHT31;55784;50.734;7.086;2022-07-23T11:58:36;24.77;49.07
68801;SHT31;55784;50.734;7.086;2022-07-23T12:01:02;24.79;49.88
68801;SHT31;55784;50.734;7.086;2022-07-23T12:03:27;24.78;50.03
68801;SHT31;55784;50.734;7.086;2022-07-23T12:05:57;25.08;49.85
68801;SHT31;55784;50.734;7.086;2022-07-23T12:08:22;24.99;49.92
68801;SHT31;55784;50.734;7.086;2022-07-23T12:10:48;24.82;49.66
68801;SHT31;55784;50.734;7.086;2022-07-23T12:13:19;24.95;49.11
68801;SHT31;55784;50.734;7.086;2022-07-23T12:15:47;24.77;48.46
68801;SHT31;55784;50.734;7.086;2022-07-23T12:18:18;24.87;47.79
68801;SHT31;55784;50.734;7.086;2022-07-23T12:20:47;25.18;48.33
68801;SHT31;55784;50.734;7.086;2022-07-23T12:23:15;25.25;48.09
68801;SHT31;55784;50.734;7.086;2022-07-23T12:25:43;25.12;48.53
68801;SHT31;55784;50.734;7.086;2022-07-23T12:28:12;25.12;49.35
68801;SHT31;55784;50.734;7.086;2022-07-23T12:30:51;25.47;47.92
68801;SHT31;55784;50.734;7.086;2022-07-23T12:35:51;25.18;46.39
68801;SHT31;55784;50.734;7.086;2022-07-23T12:38:19;25.45;46.52
68801;SHT31;55784;50.734;7.086;2022-07-23T12:40:45;25.60;45.91
68801;SHT31;55784;50.734;7.086;2022-07-23T12:43:23;25.70;45.91
68801;SHT31;55784;50.734;7.086;2022-07-23T12:50:59;25.60;45.60
68801;SHT31;55784;50.734;7.086;2022-07-23T12:53:30;25.79;45.03
68801;SHT31;55784;50.734;7.086;2022-07-23T12:56:06;25.77;44.67
68801;SHT31;55784;50.734;7.086;2022-07-23T12:58:51;25.86;41.56
68801;SHT31;55784;50.734;7.086;2022-07-23T13:03:58;25.76;42.43
68801;SHT31;55784;50.734;7.086;2022-07-23T13:06:31;25.97;42.54
68801;SHT31;55784;50.734;7.086;2022-07-23T13:08:57;25.89;42.95
68801;SHT31;55784;50.734;7.086;2022-07-23T13:11:23;25.83;43.21
68801;SHT31;55784;50.734;7.086;2022-07-23T13:13:49;25.80;43.24
68801;SHT31;55784;50.734;7.086;2022-07-23T13:16:17;25.70;43.62
68801;SHT31;55784;50.734;7.086;2022-07-23T13:18:42;25.97;43.38
68801;SHT31;55784;50.734;7.086;2022-07-23T13:21:08;26.27;43.27
68801;SHT31;55784;50.734;7.086;2022-07-23T13:23:33;26.04;43.29
68801;SHT31;55784;50.734;7.086;2022-07-23T13:25:59;26.28;43.29
68801;SHT31;55784;50.734;7.086;2022-07-23T13:28:24;26.27;43.64
68801;SHT31;55784;50.734;7.086;2022-07-23T13:30:51;25.94;44.16
68801;SHT31;55784;50.734;7.086;2022-07-23T13:33:18;25.93;44.25
68801;SHT31;55784;50.734;7.086;2022-07-23T13:35:43;25.90;44.29
68801;SHT31;55784;50.734;7.086;2022-07-23T13:38:09;26.23;43.94
68801;SHT31;55784;50.734;7.086;2022-07-23T13:40:38;26.05;43.89
68801;SHT31;55784;50.734;7.086;2022-07-23T13:43:05;26.04;44.29
68801;SHT31;55784;50.734;7.086;2022-07-23T13:45:31;26.37;44.20
68801;SHT31;55784;50.734;7.086;2022-07-23T13:47:57;26.17;44.38
68801;SHT31;55784;50.734;7.086;2022-07-23T13:50:22;26.11;44.72
68801;SHT31;55784;50.734;7.086;2022-07-23T13:52:47;26.08;44.70
68801;SHT31;55784;50.734;7.086;2022-07-23T13:55:13;26.28;44.33
68801;SHT31;55784;50.734;7.086;2022-07-23T13:57:38;26.51;43.91
68801;SHT31;55784;50.734;7.086;2022-07-23T14:00:05;26.37;44.44
68801;SHT31;55784;50.734;7.086;2022-07-23T14:02:32;26.17;44.77
68801;SHT31;55784;50.734;7.086;2022-07-23T14:04:58;26.27;44.89
68801;SHT31;55784;50.734;7.086;2022-07-23T14:07:23;26.31;44.80
68801;SHT31;55784;50.734;7.086;2022-07-23T14:09:51;26.44;44.67
68801;SHT31;55784;50.734;7.086;2022-07-23T14:12:16;26.61;44.28
68801;SHT31;55784;50.734;7.086;2022-07-23T14:14:41;26.48;43.83
68801;SHT31;55784;50.734;7.086;2022-07-23T14:17:08;26.78;43.45
68801;SHT31;55784;50.734;7.086;2022-07-23T14:19:34;26.84;44.44
68801;SHT31;55784;50.734;7.086;2022-07-23T14:21:59;26.69;43.90
68801;SHT31;55784;50.734;7.086;2022-07-23T14:24:25;26.89;43.78
68801;SHT31;55784;50.734;7.086;2022-07-23T14:26:50;26.76;43.76
68801;SHT31;55784;50.734;7.086;2022-07-23T14:29:15;26.81;43.63
68801;SHT31;55784;50.734;7.086;2022-07-23T14:31:41;26.82;43.63
68801;SHT31;55784;50.734;7.086;2022-07-23T14:34:06;26.72;43.43
68801;SHT31;55784;50.734;7.086;2022-07-23T14:36:31;27.12;42.73
68801;SHT31;55784;50.734;7.086;2022-07-23T14:38:57;26.85;43.87
68801;SHT31;55784;50.734;7.086;2022-07-23T14:41:22;26.88;44.24
68801;SHT31;55784;50.734;7.086;2022-07-23T14:43:48;26.74;43.29
68801;SHT31;55784;50.734;7.086;2022-07-23T14:46:13;26.44;43.61
68801;SHT31;55784;50.734;7.086;2022-07-23T14:48:39;26.54;43.38
68801;SHT31;55784;50.734;7.086;2022-07-23T14:51:07;26.62;43.40
68801;SHT31;55784;50.734;7.086;2022-07-23T14:53:32;26.82;42.78
68801;SHT31;55784;50.734;7.086;2022-07-23T14:55:58;26.64;43.45
68801;SHT31;55784;50.734;7.086;2022-07-23T14:58:23;26.81;43.33
68801;SHT31;55784;50.734;7.086;2022-07-23T15:00:50;26.61;43.54
68801;SHT31;55784;50.734;7.086;2022-07-23T15:03:15;26.52;44.16
68801;SHT31;55784;50.734;7.086;2022-07-23T15:05:41;26.72;43.94
68801;SHT31;55784;50.734;7.086;2022-07-23T15:08:06;26.96;43.75
68801;SHT31;55784;50.734;7.086;2022-07-23T15:10:31;27.16;43.24
68801;SHT31;55784;50.734;7.086;2022-07-23T15:12:57;27.22;42.85
68801;SHT31;55784;50.734;7.086;2022-07-23T15:15:33;27.23;42.90
68801;SHT31;55784;50.734;7.086;2022-07-23T15:22:14;26.91;43.29
68801;SHT31;55784;50.734;7.086;2022-07-23T15:25:51;26.76;43.81
68801;SHT31;55784;50.734;7.086;2022-07-23T15:29:21;26.76;43.65
68801;SHT31;55784;50.734;7.086;2022-07-23T15:31:59;26.65;43.55
68801;SHT31;55784;50.734;7.086;2022-07-23T15:40:28;26.85;42.34
68801;SHT31;55784;50.734;7.086;2022-07-23T15:47:30;26.88;42.49
68801;SHT31;55784;50.734;7.086;2022-07-23T15:49:50;27.02;42.16
68801;SHT31;55784;50.734;7.086;2022-07-23T15:52:27;27.09;42.45
68801;SHT31;55784;50.734;7.086;2022-07-23T15:58:21;26.96;42.85
68801;SHT31;55784;50.734;7.086;2022-07-23T16:01:02;27.02;42.83
68801;SHT31;55784;50.734;7.086;2022-07-23T16:03:59;27.03;42.21
68801;SHT31;55784;50.734;7.086;2022-07-23T16:06:59;27.16;41.95
68801;SHT31;55784;50.734;7.086;2022-07-23T16:13:10;26.81;42.16
68801;SHT31;55784;50.734;7.086;2022-07-23T16:15:50;26.95;42.46
68801;SHT31;55784;50.734;7.086;2022-07-23T16:18:32;26.98;42.60
68801;SHT31;55784;50.734;7.086;2022-07-23T16:27:18;26.62;42.39
68801;SHT31;55784;50.734;7.086;2022-07-23T16:30:56;26.67;42.17
68801;SHT31;55784;50.734;7.086;2022-07-23T16:39:57;26.76;41.81
68801;SHT31;55784;50.734;7.086;2022-07-23T16:43:04;26.74;41.93
68801;SHT31;55784;50.734;7.086;2022-07-23T16:45:44;26.81;42.12
68801;SHT31;55784;50.734;7.086;2022-07-23T16:48:11;27.03;42.03
68801;SHT31;55784;50.734;7.086;2022-07-23T16:50:36;27.13;41.90
68801;SHT31;55784;50.734;7.086;2022-07-23T16:53:01;27.19;42.28
68801;SHT31;55784;50.734;7.086;2022-07-23T19:49:46;23.51;52.07
68801;SHT31;55784;50.734;7.086;2022-07-23T19:55:53;23.44;52.49